createdAt,value
2023-05-14T00:00:42.979Z,436.00
2023-05-14T00:01:43.113Z,439.00
2023-05-14T00:02:43.007Z,440.00
2023-05-14T00:03:43.074Z,442.00
2023-05-14T00:04:42.864Z,439.00
2023-05-14T00:05:43.869Z,439.00
2023-05-14T00:06:42.892Z,439.00
2023-05-14T00:07:42.914Z,441.00
2023-05-14T00:08:42.834Z,441.00
2023-05-14T00:09:42.949Z,438.00
2023-05-14T00:10:42.795Z,440.00
2023-05-14T00:11:43.902Z,442.00
2023-05-14T00:12:42.784Z,441.00
2023-05-14T00:13:42.943Z,437.00
2023-05-14T00:14:42.734Z,439.00
2023-05-14T00:15:42.888Z,438.00
2023-05-14T00:16:42.701Z,439.00
2023-05-14T00:17:42.804Z,438.00
2023-05-14T00:18:42.716Z,437.00
2023-05-14T00:19:42.812Z,434.00
2023-05-14T00:20:42.673Z,434.00
2023-05-14T00:21:42.763Z,435.00
2023-05-14T00:22:42.635Z,438.00
2023-05-14T00:23:42.696Z,437.00
2023-05-14T00:24:42.632Z,434.00
2023-05-14T00:25:42.723Z,435.00
2023-05-14T00:26:42.567Z,435.00
2023-05-14T00:27:42.683Z,434.00
2023-05-14T00:28:42.542Z,370.00
2023-05-14T00:30:04.644Z,425.00
2023-05-14T00:30:42.532Z,504.00
2023-05-14T00:31:42.622Z,430.00
2023-05-14T00:32:42.623Z,433.00
2023-05-14T00:33:42.509Z,438.00
2023-05-14T00:34:42.642Z,528.00
2023-05-14T00:35:42.493Z,445.00
2023-05-14T00:37:03.553Z,491.00
2023-05-14T00:37:42.430Z,445.00
2023-05-14T00:38:42.524Z,442.00
2023-05-14T00:39:42.409Z,443.00
2023-05-14T00:40:42.544Z,439.00
2023-05-14T00:41:42.395Z,436.00
2023-05-14T00:42:44.596Z,435.00
2023-05-14T00:43:42.354Z,432.00
2023-05-14T00:44:42.519Z,387.00
2023-05-14T00:45:42.320Z,243.00
2023-05-14T00:46:42.430Z,253.00
2023-05-14T00:47:42.378Z,437.00
2023-05-14T00:48:42.394Z,414.00
2023-05-14T00:49:42.276Z,439.00
2023-05-14T00:50:42.416Z,441.00
2023-05-14T00:51:42.235Z,441.00
2023-05-14T00:52:44.448Z,439.00
2023-05-14T00:53:42.245Z,436.00
2023-05-14T00:54:42.387Z,433.00
2023-05-14T00:55:42.201Z,432.00
2023-05-14T00:56:42.234Z,433.00
2023-05-14T00:57:42.182Z,433.00
2023-05-14T00:58:42.247Z,436.00
2023-05-14T00:59:42.173Z,440.00
2023-05-14T01:00:42.340Z,530.00
2023-05-14T01:01:42.133Z,445.00
2023-05-14T01:02:42.281Z,446.00
2023-05-14T01:03:42.130Z,448.00
2023-05-14T01:04:42.257Z,448.00
2023-05-14T01:05:42.096Z,441.00
2023-05-14T01:06:42.096Z,441.00
2023-05-14T01:07:42.051Z,440.00
2023-05-14T01:08:42.136Z,443.00
2023-05-14T01:09:41.991Z,445.00
2023-05-14T01:11:03.117Z,442.00
2023-05-14T01:11:41.963Z,441.00
2023-05-14T01:12:42.115Z,443.00
2023-05-14T01:13:41.953Z,444.00
2023-05-14T01:14:42.041Z,444.00
2023-05-14T01:15:41.956Z,443.00
2023-05-14T01:16:42.076Z,443.00
2023-05-14T01:17:41.954Z,446.00
2023-05-14T01:18:42.173Z,446.00
2023-05-14T01:19:41.885Z,446.00
2023-05-14T01:20:41.949Z,445.00
2023-05-14T01:21:41.847Z,446.00
2023-05-14T01:22:43.095Z,446.00
2023-05-14T01:23:41.851Z,448.00
2023-05-14T01:24:41.925Z,447.00
2023-05-14T01:25:41.774Z,448.00
2023-05-14T01:26:42.882Z,448.00
2023-05-14T01:27:41.777Z,448.00
2023-05-14T01:28:41.940Z,450.00
2023-05-14T01:29:41.749Z,449.00
2023-05-14T01:30:41.814Z,454.00
2023-05-14T01:31:41.732Z,454.00
2023-05-14T01:32:41.858Z,453.00
2023-05-14T01:33:41.674Z,451.00
2023-05-14T01:34:41.744Z,452.00
2023-05-14T01:35:41.672Z,452.00
2023-05-14T01:36:41.721Z,449.00
2023-05-14T01:37:41.650Z,449.00
2023-05-14T01:38:41.751Z,447.00
2023-05-14T01:39:41.608Z,445.00
2023-05-14T01:40:42.776Z,444.00
2023-05-14T01:41:41.566Z,444.00
2023-05-14T01:42:41.696Z,447.00
2023-05-14T01:43:41.532Z,447.00
2023-05-14T01:44:41.648Z,446.00
2023-05-14T01:45:41.566Z,444.00
2023-05-14T01:46:41.717Z,445.00
2023-05-14T01:47:41.517Z,444.00
2023-05-14T01:48:41.659Z,445.00
2023-05-14T01:49:41.470Z,447.00
2023-05-14T01:51:02.657Z,447.00
2023-05-14T01:51:41.434Z,450.00
2023-05-14T01:52:41.560Z,453.00
2023-05-14T01:53:41.425Z,452.00
2023-05-14T01:54:41.521Z,454.00
2023-05-14T01:55:41.363Z,454.00
2023-05-14T01:56:41.469Z,455.00
2023-05-14T01:57:41.384Z,455.00
2023-05-14T01:58:41.448Z,455.00
2023-05-14T01:59:41.306Z,454.00
2023-05-14T02:00:41.350Z,454.00
2023-05-14T02:01:41.387Z,453.00
2023-05-14T02:02:41.396Z,453.00
2023-05-14T02:03:41.266Z,453.00
2023-05-14T02:04:41.497Z,452.00
2023-05-14T02:05:41.235Z,452.00
2023-05-14T02:06:41.335Z,452.00
2023-05-14T02:07:41.204Z,451.00
2023-05-14T02:08:41.379Z,449.00
2023-05-14T02:09:41.165Z,451.00
2023-05-14T02:10:41.256Z,451.00
2023-05-14T02:11:41.140Z,450.00
2023-05-14T02:12:41.244Z,450.00
2023-05-14T02:13:41.110Z,452.00
2023-05-14T02:14:41.215Z,453.00
2023-05-14T02:15:41.141Z,455.00
2023-05-14T02:16:41.184Z,456.00
2023-05-14T02:17:41.099Z,456.00
2023-05-14T02:18:41.177Z,457.00
2023-05-14T02:19:41.035Z,456.00
2023-05-14T02:20:41.053Z,457.00
2023-05-14T02:21:41.031Z,458.00
2023-05-14T02:22:41.124Z,460.00
2023-05-14T02:23:42.191Z,460.00
2023-05-14T02:24:41.000Z,461.00
2023-05-14T02:25:40.951Z,462.00
2023-05-14T02:26:40.997Z,463.00
2023-05-14T02:27:40.929Z,424.00
2023-05-14T02:28:40.979Z,436.00
2023-05-14T02:29:40.902Z,440.00
2023-05-14T02:30:40.919Z,459.00
2023-05-14T02:31:40.959Z,469.00
2023-05-14T02:32:42.081Z,475.00
2023-05-14T02:33:40.911Z,470.00
2023-05-14T02:34:41.021Z,468.00
2023-05-14T02:35:40.820Z,468.00
2023-05-14T02:36:40.859Z,468.00
2023-05-14T02:37:40.790Z,464.00
2023-05-14T02:38:40.880Z,463.00
2023-05-14T02:39:40.767Z,462.00
2023-05-14T02:40:40.854Z,460.00
2023-05-14T02:41:40.734Z,457.00
2023-05-14T02:42:40.804Z,456.00
2023-05-14T02:43:40.703Z,455.00
2023-05-14T02:44:40.720Z,455.00
2023-05-14T02:45:40.682Z,453.00
2023-05-14T02:46:40.866Z,455.00
2023-05-14T02:47:40.726Z,458.00
2023-05-14T02:48:41.711Z,461.00
2023-05-14T02:49:40.616Z,465.00
2023-05-14T02:50:40.718Z,474.00
2023-05-14T02:51:40.601Z,474.00
2023-05-14T02:52:40.702Z,468.00
2023-05-14T02:53:40.576Z,466.00
2023-05-14T02:54:40.681Z,465.00
2023-05-14T02:55:40.546Z,465.00
2023-05-14T02:56:40.625Z,474.00
2023-05-14T02:57:40.513Z,456.00
2023-05-14T02:58:40.604Z,453.00
2023-05-14T02:59:40.499Z,453.00
2023-05-14T03:00:40.621Z,455.00
2023-05-14T03:01:40.458Z,456.00
2023-05-14T03:02:40.740Z,453.00
2023-05-14T03:03:40.430Z,451.00
2023-05-14T03:04:42.666Z,451.00
2023-05-14T03:05:40.406Z,450.00
2023-05-14T03:06:40.499Z,448.00
2023-05-14T03:07:40.374Z,449.00
2023-05-14T03:08:40.571Z,450.00
2023-05-14T03:09:40.350Z,451.00
2023-05-14T03:10:43.703Z,448.00
2023-05-14T03:11:40.335Z,450.00
2023-05-14T03:12:40.507Z,446.00
2023-05-14T03:13:40.300Z,443.00
2023-05-14T03:14:40.335Z,446.00
2023-05-14T03:15:40.272Z,445.00
2023-05-14T03:16:40.404Z,447.00
2023-05-14T03:17:40.282Z,447.00
2023-05-14T03:18:41.355Z,447.00
2023-05-14T03:19:40.211Z,448.00
2023-05-14T03:20:40.344Z,449.00
2023-05-14T03:21:40.186Z,451.00
2023-05-14T03:22:40.330Z,448.00
2023-05-14T03:23:40.159Z,401.00
2023-05-14T03:24:40.213Z,431.00
2023-05-14T03:25:40.134Z,442.00
2023-05-14T03:26:40.274Z,447.00
2023-05-14T03:27:40.117Z,441.00
2023-05-14T03:28:40.242Z,426.00
2023-05-14T03:29:40.073Z,437.00
2023-05-14T03:30:40.242Z,454.00
2023-05-14T03:31:40.052Z,457.00
2023-05-14T03:32:40.280Z,458.00
2023-05-14T03:33:40.033Z,460.00
2023-05-14T03:34:40.146Z,461.00
2023-05-14T03:35:40.006Z,461.00
2023-05-14T03:36:40.132Z,459.00
2023-05-14T03:37:39.982Z,460.00
2023-05-14T03:38:41.089Z,459.00
2023-05-14T03:39:39.967Z,459.00
2023-05-14T03:40:40.155Z,457.00
2023-05-14T03:41:39.929Z,456.00
2023-05-14T03:42:40.038Z,456.00
2023-05-14T03:43:39.896Z,455.00
2023-05-14T03:44:42.076Z,455.00
2023-05-14T03:45:39.887Z,454.00
2023-05-14T03:46:39.963Z,456.00
2023-05-14T03:47:39.916Z,455.00
2023-05-14T03:48:39.969Z,454.00
2023-05-14T03:49:39.817Z,452.00
2023-05-14T03:50:41.003Z,455.00
2023-05-14T03:51:39.793Z,456.00
2023-05-14T03:52:39.856Z,455.00
2023-05-14T03:53:39.771Z,456.00
2023-05-14T03:54:39.857Z,455.00
2023-05-14T03:55:39.740Z,455.00
2023-05-14T03:56:40.804Z,454.00
2023-05-14T03:57:39.706Z,454.00
2023-05-14T03:58:41.425Z,453.00
2023-05-14T03:59:39.685Z,452.00
2023-05-14T04:00:39.752Z,451.00
2023-05-14T04:01:39.653Z,453.00
2023-05-14T04:02:39.900Z,454.00
2023-05-14T04:03:39.797Z,453.00
2023-05-14T04:04:42.955Z,452.00
2023-05-14T04:05:39.616Z,451.00
2023-05-14T04:06:39.768Z,452.00
2023-05-14T04:07:39.569Z,451.00
2023-05-14T04:08:39.701Z,452.00
2023-05-14T04:09:39.614Z,450.00
2023-05-14T04:10:39.684Z,451.00
2023-05-14T04:11:39.528Z,453.00
2023-05-14T04:12:41.658Z,450.00
2023-05-14T04:13:39.500Z,451.00
2023-05-14T04:14:39.600Z,452.00
2023-05-14T04:15:39.516Z,454.00
2023-05-14T04:16:39.769Z,454.00
2023-05-14T04:17:39.452Z,456.00
2023-05-14T04:18:39.565Z,456.00
2023-05-14T04:19:39.414Z,457.00
2023-05-14T04:20:39.483Z,461.00
2023-05-14T04:21:39.404Z,456.00
2023-05-14T04:22:39.447Z,456.00
2023-05-14T04:23:39.373Z,456.00
2023-05-14T04:24:39.413Z,452.00
2023-05-14T04:25:39.346Z,453.00
2023-05-14T04:26:39.426Z,455.00
2023-05-14T04:27:39.314Z,455.00
2023-05-14T04:28:39.400Z,453.00
2023-05-14T04:29:39.270Z,452.00
2023-05-14T04:30:39.350Z,450.00
2023-05-14T04:31:39.292Z,451.00
2023-05-14T04:32:39.362Z,451.00
2023-05-14T04:33:39.222Z,449.00
2023-05-14T04:34:39.325Z,450.00
2023-05-14T04:35:39.209Z,451.00
2023-05-14T04:36:39.296Z,451.00
2023-05-14T04:37:39.178Z,452.00
2023-05-14T04:38:39.198Z,453.00
2023-05-14T04:39:39.139Z,455.00
2023-05-14T04:40:39.178Z,458.00
2023-05-14T04:41:39.132Z,458.00
2023-05-14T04:42:39.116Z,457.00
2023-05-14T04:43:39.102Z,459.00
2023-05-14T04:44:39.154Z,461.00
2023-05-14T04:45:39.090Z,461.00
2023-05-14T04:46:39.237Z,463.00
2023-05-14T04:47:39.112Z,463.00
2023-05-14T04:48:39.067Z,458.00
2023-05-14T04:49:39.043Z,457.00
2023-05-14T04:50:39.080Z,460.00
2023-05-14T04:51:38.996Z,460.00
2023-05-14T04:52:39.087Z,458.00
2023-05-14T04:53:38.950Z,459.00
2023-05-14T04:54:39.014Z,459.00
2023-05-14T04:55:38.915Z,459.00
2023-05-14T04:56:39.025Z,460.00
2023-05-14T04:57:38.912Z,460.00
2023-05-14T04:58:38.990Z,460.00
2023-05-14T04:59:38.868Z,460.00
2023-05-14T05:00:38.952Z,460.00
2023-05-14T05:01:38.902Z,458.00
2023-05-14T05:02:38.881Z,455.00
2023-05-14T05:03:38.854Z,458.00
2023-05-14T05:04:38.932Z,457.00
2023-05-14T05:05:38.801Z,457.00
2023-05-14T05:06:38.896Z,455.00
2023-05-14T05:07:38.766Z,452.00
2023-05-14T05:08:38.825Z,452.00
2023-05-14T05:09:38.755Z,451.00
2023-05-14T05:10:38.789Z,448.00
2023-05-14T05:11:38.716Z,450.00
2023-05-14T05:12:38.740Z,448.00
2023-05-14T05:13:38.692Z,450.00
2023-05-14T05:14:38.748Z,454.00
2023-05-14T05:15:38.702Z,454.00
2023-05-14T05:16:38.733Z,455.00
2023-05-14T05:17:38.664Z,455.00
2023-05-14T05:18:38.752Z,453.00
2023-05-14T05:19:43.763Z,454.00
2023-05-14T05:20:39.596Z,453.00
2023-05-14T05:21:38.708Z,453.00
2023-05-14T05:22:38.594Z,451.00
2023-05-14T05:23:38.607Z,453.00
2023-05-14T05:24:38.590Z,452.00
2023-05-14T05:25:38.629Z,453.00
2023-05-14T05:26:38.522Z,456.00
2023-05-14T05:27:38.538Z,453.00
2023-05-14T05:28:38.513Z,453.00
2023-05-14T05:29:38.548Z,452.00
2023-05-14T05:30:38.475Z,452.00
2023-05-14T05:31:38.613Z,453.00
2023-05-14T05:32:38.438Z,454.00
2023-05-14T05:33:38.475Z,453.00
2023-05-14T05:34:38.440Z,454.00
2023-05-14T05:35:38.505Z,453.00
2023-05-14T05:36:38.373Z,452.00
2023-05-14T05:37:38.399Z,451.00
2023-05-14T05:38:38.364Z,451.00
2023-05-14T05:39:38.460Z,449.00
2023-05-14T05:40:38.366Z,449.00
2023-05-14T05:41:38.325Z,451.00
2023-05-14T05:42:38.297Z,449.00
2023-05-14T05:43:38.342Z,450.00
2023-05-14T05:44:38.288Z,452.00
2023-05-14T05:45:38.368Z,453.00
2023-05-14T05:46:38.349Z,452.00
2023-05-14T05:47:38.295Z,452.00
2023-05-14T05:48:38.214Z,452.00
2023-05-14T05:49:38.281Z,451.00
2023-05-14T05:50:38.183Z,449.00
2023-05-14T05:51:38.213Z,448.00
2023-05-14T05:52:38.175Z,450.00
2023-05-14T05:53:38.226Z,451.00
2023-05-14T05:54:38.141Z,450.00
2023-05-14T05:55:38.224Z,452.00
2023-05-14T05:56:38.113Z,451.00
2023-05-14T05:57:38.131Z,451.00
2023-05-14T05:58:38.112Z,451.00
2023-05-14T05:59:38.151Z,452.00
2023-05-14T06:00:38.051Z,452.00
2023-05-14T06:01:38.101Z,451.00
2023-05-14T06:02:38.223Z,451.00
2023-05-14T06:03:38.146Z,452.00
2023-05-14T06:04:38.035Z,452.00
2023-05-14T06:05:38.231Z,450.00
2023-05-14T06:06:38.007Z,447.00
2023-05-14T06:07:38.026Z,446.00
2023-05-14T06:08:37.951Z,451.00
2023-05-14T06:09:38.036Z,452.00
2023-05-14T06:10:37.942Z,453.00
2023-05-14T06:11:37.950Z,453.00
2023-05-14T06:12:37.901Z,455.00
2023-05-14T06:13:37.953Z,457.00
2023-05-14T06:14:37.871Z,458.00
2023-05-14T06:15:37.977Z,454.00
2023-05-14T06:16:37.919Z,452.00
2023-05-14T06:17:40.038Z,452.00
2023-05-14T06:18:37.944Z,452.00
2023-05-14T06:19:37.890Z,452.00
2023-05-14T06:20:37.803Z,451.00
2023-05-14T06:21:37.800Z,449.00
2023-05-14T06:22:37.778Z,450.00
2023-05-14T06:23:37.818Z,447.00
2023-05-14T06:24:37.736Z,446.00
2023-05-14T06:25:37.831Z,452.00
2023-05-14T06:26:37.709Z,450.00
2023-05-14T06:27:37.743Z,449.00
2023-05-14T06:28:37.731Z,450.00
2023-05-14T06:29:37.756Z,447.00
2023-05-14T06:30:37.697Z,446.00
2023-05-14T06:31:37.759Z,447.00
2023-05-14T06:32:37.659Z,444.00
2023-05-14T06:33:37.686Z,445.00
2023-05-14T06:34:37.626Z,444.00
2023-05-14T06:35:37.697Z,445.00
2023-05-14T06:36:37.569Z,444.00
2023-05-14T06:37:37.614Z,442.00
2023-05-14T06:38:37.552Z,444.00
2023-05-14T06:39:37.622Z,445.00
2023-05-14T06:40:37.889Z,441.00
2023-05-14T06:41:37.534Z,445.00
2023-05-14T06:42:37.494Z,444.00
2023-05-14T06:43:37.545Z,444.00
2023-05-14T06:44:37.465Z,446.00
2023-05-14T06:45:37.569Z,444.00
2023-05-14T06:46:37.459Z,444.00
2023-05-14T06:47:39.606Z,439.00
2023-05-14T06:48:37.448Z,441.00
2023-05-14T06:49:37.507Z,443.00
2023-05-14T06:50:37.386Z,446.00
2023-05-14T06:51:37.416Z,433.00
2023-05-14T06:52:37.384Z,437.00
2023-05-14T06:53:37.436Z,439.00
2023-05-14T06:54:37.332Z,431.00
2023-05-14T06:55:37.323Z,436.00
2023-05-14T06:56:37.343Z,436.00
2023-05-14T06:57:39.855Z,437.00
2023-05-14T06:58:37.300Z,436.00
2023-05-14T06:59:37.467Z,437.00
2023-05-14T07:00:37.261Z,435.00
2023-05-14T07:01:37.343Z,432.00
2023-05-14T07:02:37.253Z,441.00
2023-05-14T07:03:37.294Z,436.00
2023-05-14T07:04:37.264Z,439.00
2023-05-14T07:05:37.302Z,438.00
2023-05-14T07:06:37.177Z,439.00
2023-05-14T07:07:37.214Z,438.00
2023-05-14T07:08:37.153Z,438.00
2023-05-14T07:09:37.249Z,438.00
2023-05-14T07:10:37.138Z,439.00
2023-05-14T07:11:37.138Z,441.00
2023-05-14T07:12:37.103Z,441.00
2023-05-14T07:13:37.169Z,439.00
2023-05-14T07:14:37.066Z,441.00
2023-05-14T07:15:37.078Z,440.00
2023-05-14T07:16:37.129Z,441.00
2023-05-14T07:17:37.110Z,445.00
2023-05-14T07:18:37.101Z,442.00
2023-05-14T07:19:37.100Z,445.00
2023-05-14T07:20:36.986Z,440.00
2023-05-14T07:21:37.009Z,439.00
2023-05-14T07:22:36.994Z,442.00
2023-05-14T07:23:37.018Z,437.00
2023-05-14T07:24:36.931Z,435.00
2023-05-14T07:25:36.937Z,436.00
2023-05-14T07:26:36.935Z,437.00
2023-05-14T07:27:36.960Z,438.00
2023-05-14T07:28:36.937Z,439.00
2023-05-14T07:29:36.964Z,444.00
2023-05-14T07:30:36.856Z,446.00
2023-05-14T07:31:36.923Z,444.00
2023-05-14T07:32:36.836Z,466.00
2023-05-14T07:33:36.945Z,458.00
2023-05-14T07:34:36.814Z,455.00
2023-05-14T07:35:36.808Z,451.00
2023-05-14T07:36:36.791Z,451.00
2023-05-14T07:37:36.823Z,454.00
2023-05-14T07:38:36.785Z,444.00
2023-05-14T07:39:36.840Z,431.00
2023-05-14T07:40:36.742Z,437.00
2023-05-14T07:41:36.750Z,442.00
2023-05-14T07:42:37.452Z,423.00
2023-05-14T07:43:36.755Z,443.00
2023-05-14T07:44:36.682Z,449.00
2023-05-14T07:45:36.677Z,448.00
2023-05-14T07:46:36.665Z,446.00
2023-05-14T07:47:36.816Z,446.00
2023-05-14T07:48:36.694Z,445.00
2023-05-14T07:49:36.692Z,444.00
2023-05-14T07:50:36.582Z,443.00
2023-05-14T07:51:36.617Z,443.00
2023-05-14T07:52:36.586Z,445.00
2023-05-14T07:53:36.547Z,446.00
2023-05-14T07:54:36.532Z,445.00
2023-05-14T07:55:36.549Z,444.00
2023-05-14T07:56:36.510Z,444.00
2023-05-14T07:57:36.553Z,442.00
2023-05-14T07:58:36.500Z,444.00
2023-05-14T07:59:36.575Z,443.00
2023-05-14T08:00:36.455Z,445.00
2023-05-14T08:01:38.595Z,445.00
2023-05-14T08:02:36.499Z,442.00
2023-05-14T08:03:37.592Z,439.00
2023-05-14T08:04:36.640Z,437.00
2023-05-14T08:05:36.420Z,439.00
2023-05-14T08:06:36.370Z,440.00
2023-05-14T08:07:37.444Z,443.00
2023-05-14T08:08:36.331Z,447.00
2023-05-14T08:09:36.434Z,444.00
2023-05-14T08:10:36.457Z,442.00
2023-05-14T08:11:36.373Z,439.00
2023-05-14T08:12:36.312Z,441.00
2023-05-14T08:13:36.395Z,442.00
2023-05-14T08:14:36.343Z,443.00
2023-05-14T08:15:36.274Z,443.00
2023-05-14T08:16:36.308Z,444.00
2023-05-14T08:17:36.312Z,447.00
2023-05-14T08:18:36.249Z,447.00
2023-05-14T08:19:36.317Z,444.00
2023-05-14T08:20:36.183Z,444.00
2023-05-14T08:21:36.218Z,444.00
2023-05-14T08:22:36.170Z,443.00
2023-05-14T08:23:36.232Z,443.00
2023-05-14T08:24:36.182Z,445.00
2023-05-14T08:25:36.208Z,446.00
2023-05-14T08:26:36.095Z,448.00
2023-05-14T08:27:36.218Z,446.00
2023-05-14T08:28:36.101Z,445.00
2023-05-14T08:29:36.075Z,445.00
2023-05-14T08:30:36.079Z,443.00
2023-05-14T08:31:36.094Z,441.00
2023-05-14T08:32:36.060Z,439.00
2023-05-14T08:33:36.118Z,439.00
2023-05-14T08:34:36.008Z,443.00
2023-05-14T08:35:36.083Z,448.00
2023-05-14T08:36:35.961Z,450.00
2023-05-14T08:37:57.174Z,448.00
2023-05-14T08:38:35.931Z,447.00
2023-05-14T08:39:36.034Z,447.00
2023-05-14T08:40:35.953Z,446.00
2023-05-14T08:41:35.961Z,444.00
2023-05-14T08:42:35.887Z,444.00
2023-05-14T08:43:36.010Z,440.00
2023-05-14T08:44:35.971Z,444.00
2023-05-14T08:45:35.921Z,449.00
2023-05-14T08:46:35.876Z,446.00
2023-05-14T08:47:35.951Z,441.00
2023-05-14T08:48:35.823Z,441.00
2023-05-14T08:49:35.819Z,444.00
2023-05-14T08:50:35.776Z,443.00
2023-05-14T08:51:37.041Z,446.00
2023-05-14T08:52:35.758Z,450.00
2023-05-14T08:53:35.853Z,445.00
2023-05-14T08:54:35.737Z,449.00
2023-05-14T08:55:35.757Z,447.00
2023-05-14T08:56:35.693Z,446.00
2023-05-14T08:57:35.777Z,442.00
2023-05-14T08:58:35.698Z,445.00
2023-05-14T08:59:35.694Z,449.00
2023-05-14T09:00:35.639Z,442.00
2023-05-14T09:01:35.714Z,442.00
2023-05-14T09:02:35.648Z,443.00
2023-05-14T09:03:35.749Z,437.00
2023-05-14T09:04:35.653Z,439.00
2023-05-14T09:05:35.619Z,439.00
2023-05-14T09:06:35.606Z,440.00
2023-05-14T09:07:35.707Z,437.00
2023-05-14T09:08:35.546Z,437.00
2023-05-14T09:09:35.544Z,439.00
2023-05-14T09:10:35.532Z,442.00
2023-05-14T09:11:35.567Z,442.00
2023-05-14T09:12:35.480Z,443.00
2023-05-14T09:13:35.573Z,439.00
2023-05-14T09:14:35.454Z,442.00
2023-05-14T09:15:35.487Z,442.00
2023-05-14T09:16:35.475Z,439.00
2023-05-14T09:17:35.549Z,443.00
2023-05-14T09:18:35.467Z,444.00
2023-05-14T09:19:35.427Z,445.00
2023-05-14T09:20:35.493Z,444.00
2023-05-14T09:21:35.426Z,443.00
2023-05-14T09:22:35.370Z,441.00
2023-05-14T09:23:35.441Z,441.00
2023-05-14T09:24:35.319Z,440.00
2023-05-14T09:25:35.347Z,440.00
2023-05-14T09:26:35.302Z,444.00
2023-05-14T09:27:35.369Z,444.00
2023-05-14T09:28:35.285Z,445.00
2023-05-14T09:29:35.287Z,448.00
2023-05-14T09:30:35.232Z,448.00
2023-05-14T09:31:35.309Z,449.00
2023-05-14T09:32:35.237Z,448.00
2023-05-14T09:33:35.320Z,450.00
2023-05-14T09:34:35.244Z,448.00
2023-05-14T09:35:35.439Z,449.00
2023-05-14T09:36:35.261Z,448.00
2023-05-14T09:37:35.257Z,449.00
2023-05-14T09:38:35.245Z,453.00
2023-05-14T09:39:35.148Z,453.00
2023-05-14T09:40:35.179Z,450.00
2023-05-14T09:41:35.159Z,452.00
2023-05-14T09:42:35.068Z,450.00
2023-05-14T09:43:35.181Z,448.00
2023-05-14T09:44:35.049Z,453.00
2023-05-14T09:45:35.120Z,451.00
2023-05-14T09:46:35.160Z,454.00
2023-05-14T09:47:35.198Z,455.00
2023-05-14T09:48:35.010Z,455.00
2023-05-14T09:49:35.031Z,455.00
2023-05-14T09:50:34.965Z,452.00
2023-05-14T09:51:35.053Z,454.00
2023-05-14T09:52:34.955Z,455.00
2023-05-14T09:53:35.051Z,453.00
2023-05-14T09:54:34.916Z,453.00
2023-05-14T09:55:34.960Z,455.00
2023-05-14T09:56:34.878Z,452.00
2023-05-14T09:57:34.978Z,452.00
2023-05-14T09:58:34.954Z,452.00
2023-05-14T09:59:34.884Z,448.00
2023-05-14T10:00:34.825Z,448.00
2023-05-14T10:01:35.027Z,450.00
2023-05-14T10:02:34.822Z,446.00
2023-05-14T10:03:34.825Z,446.00
2023-05-14T10:04:34.867Z,445.00
2023-05-14T10:05:34.962Z,444.00
2023-05-14T10:06:34.750Z,441.00
2023-05-14T10:07:34.838Z,443.00
2023-05-14T10:08:34.718Z,442.00
2023-05-14T10:09:34.748Z,442.00
2023-05-14T10:10:34.716Z,442.00
2023-05-14T10:11:34.770Z,445.00
2023-05-14T10:12:34.670Z,446.00
2023-05-14T10:13:34.685Z,443.00
2023-05-14T10:14:34.647Z,448.00
2023-05-14T10:15:34.698Z,446.00
2023-05-14T10:16:34.781Z,449.00
2023-05-14T10:17:34.754Z,446.00
2023-05-14T10:18:34.633Z,449.00
2023-05-14T10:19:34.615Z,450.00
2023-05-14T10:20:34.560Z,450.00
2023-05-14T10:21:34.649Z,449.00
2023-05-14T10:22:34.548Z,448.00
2023-05-14T10:23:34.553Z,448.00
2023-05-14T10:24:34.537Z,449.00
2023-05-14T10:25:34.558Z,446.00
2023-05-14T10:26:34.486Z,445.00
2023-05-14T10:27:34.586Z,442.00
2023-05-14T10:28:34.485Z,443.00
2023-05-14T10:29:34.516Z,444.00
2023-05-14T10:30:34.432Z,443.00
2023-05-14T10:31:36.530Z,440.00
2023-05-14T10:32:34.501Z,438.00
2023-05-14T10:33:35.439Z,442.00
2023-05-14T10:34:34.411Z,439.00
2023-05-14T10:35:34.441Z,441.00
2023-05-14T10:36:34.398Z,441.00
2023-05-14T10:37:34.447Z,441.00
2023-05-14T10:38:34.329Z,434.00
2023-05-14T10:39:34.368Z,439.00
2023-05-14T10:40:34.360Z,438.00
2023-05-14T10:41:34.366Z,435.00
2023-05-14T10:42:34.278Z,439.00
2023-05-14T10:43:34.290Z,436.00
2023-05-14T10:44:34.394Z,440.00
2023-05-14T10:45:34.307Z,439.00
2023-05-14T10:46:34.281Z,438.00
2023-05-14T10:47:34.441Z,435.00
2023-05-14T10:48:34.220Z,437.00
2023-05-14T10:49:42.761Z,441.00
2023-05-14T10:50:35.161Z,439.00
2023-05-14T10:51:34.315Z,442.00
2023-05-14T10:52:34.150Z,437.00
2023-05-14T10:53:34.155Z,437.00
2023-05-14T10:54:34.097Z,439.00
2023-05-14T10:55:34.190Z,439.00
2023-05-14T10:56:34.078Z,438.00
2023-05-14T10:57:34.075Z,436.00
2023-05-14T10:58:34.075Z,437.00
2023-05-14T10:59:34.094Z,434.00
2023-05-14T11:00:34.013Z,435.00
2023-05-14T11:01:34.169Z,438.00
2023-05-14T11:02:34.162Z,434.00
2023-05-14T11:03:34.082Z,433.00
2023-05-14T11:04:33.989Z,436.00
2023-05-14T11:05:34.048Z,440.00
2023-05-14T11:06:33.944Z,441.00
2023-05-14T11:07:34.074Z,441.00
2023-05-14T11:08:33.918Z,438.00
2023-05-14T11:09:33.978Z,439.00
2023-05-14T11:10:33.910Z,438.00
2023-05-14T11:11:33.977Z,440.00
2023-05-14T11:12:33.860Z,444.00
2023-05-14T11:13:33.893Z,420.00
2023-05-14T11:14:33.841Z,444.00
2023-05-14T11:15:33.932Z,434.00
2023-05-14T11:16:33.875Z,433.00
2023-05-14T11:17:33.847Z,430.00
2023-05-14T11:18:33.886Z,435.00
2023-05-14T11:19:33.832Z,435.00
2023-05-14T11:20:33.753Z,434.00
2023-05-14T11:21:33.863Z,432.00
2023-05-14T11:22:33.744Z,434.00
2023-05-14T11:23:33.761Z,430.00
2023-05-14T11:24:33.707Z,429.00
2023-05-14T11:25:33.779Z,427.00
2023-05-14T11:26:33.733Z,426.00
2023-05-14T11:27:33.694Z,427.00
2023-05-14T11:28:33.684Z,426.00
2023-05-14T11:29:33.700Z,427.00
2023-05-14T11:30:33.623Z,430.00
2023-05-14T11:31:33.798Z,430.00
2023-05-14T11:32:33.783Z,432.00
2023-05-14T11:33:33.651Z,435.00
2023-05-14T11:34:33.579Z,435.00
2023-05-14T11:35:33.641Z,434.00
2023-05-14T11:36:33.546Z,435.00
2023-05-14T11:37:33.528Z,434.00
2023-05-14T11:38:33.526Z,436.00
2023-05-14T11:39:33.572Z,434.00
2023-05-14T11:40:33.544Z,433.00
2023-05-14T11:41:33.588Z,434.00
2023-05-14T11:42:33.462Z,435.00
2023-05-14T11:43:33.492Z,433.00
2023-05-14T11:44:33.442Z,435.00
2023-05-14T11:45:33.514Z,434.00
2023-05-14T11:46:33.476Z,435.00
2023-05-14T11:47:33.540Z,433.00
2023-05-14T11:48:33.388Z,430.00
2023-05-14T11:49:33.442Z,431.00
2023-05-14T11:50:33.345Z,431.00
2023-05-14T11:51:33.354Z,432.00
2023-05-14T11:52:33.343Z,431.00
2023-05-14T11:53:33.387Z,428.00
2023-05-14T11:54:33.301Z,427.00
2023-05-14T11:55:33.375Z,429.00
2023-05-14T11:56:33.265Z,429.00
2023-05-14T11:57:33.280Z,431.00
2023-05-14T11:58:33.259Z,432.00
2023-05-14T11:59:33.313Z,433.00
2023-05-14T12:00:33.220Z,435.00
2023-05-14T12:01:33.216Z,434.00
2023-05-14T12:02:33.235Z,432.00
2023-05-14T12:03:33.402Z,435.00
2023-05-14T12:04:33.210Z,434.00
2023-05-14T12:05:33.242Z,431.00
2023-05-14T12:06:33.135Z,428.00
2023-05-14T12:07:33.155Z,433.00
2023-05-14T12:08:33.104Z,429.00
2023-05-14T12:09:33.171Z,432.00
2023-05-14T12:10:33.087Z,433.00
2023-05-14T12:11:33.089Z,433.00
2023-05-14T12:12:33.050Z,430.00
2023-05-14T12:13:33.122Z,435.00
2023-05-14T12:14:33.012Z,431.00
2023-05-14T12:15:33.111Z,433.00
2023-05-14T12:16:33.977Z,435.00
2023-05-14T12:17:33.056Z,432.00
2023-05-14T12:18:33.183Z,433.00
2023-05-14T12:19:33.047Z,431.00
2023-05-14T12:20:32.950Z,426.00
2023-05-14T12:21:33.020Z,428.00
2023-05-14T12:22:33.883Z,432.00
2023-05-14T12:23:32.997Z,431.00
2023-05-14T12:24:32.896Z,429.00
2023-05-14T12:25:32.986Z,432.00
2023-05-14T12:26:32.852Z,430.00
2023-05-14T12:27:32.900Z,429.00
2023-05-14T12:28:34.255Z,424.00